Monday, December 18, 2017, 2:26 PM GMT
Back to Local

CYSJ, Saint John, N. B.

Location: , , Canada Lat: 45.333
Local Time: 2:26 PM GMT (14:26 GMT) Lon: -65.883
Time Zone: GMT Elev: 337 ft

Show me the last for .
Show Coded

Time T Td Feel RH Dir Speed Gust Alt SLP Vis Weather Sky Remarks
2017-12-18 14:00 7 0 -3 71 10° 6 - 30.15 30.18 15 OVC100 None
2017-12-18 13:00 5 0 -6 77 350° 6 - 30.15 30.19 15 BKN120 OVC270 None
2017-12-18 12:00 3 -2 -10 77 360° 8 - 30.15 30.18 15 BKN150 OVC270 None
2017-12-18 11:00 3 -2 -9 77 360° 7 - 30.17 30.20 15 SCT200 None
2017-12-18 10:00 3 -2 -9 77 340° 7 - 30.19 30.22 15 FEW220 None
2017-12-18 09:00 5 -2 -8 71 340° 8 - 30.17 30.20 15 CLR None
2017-12-18 08:00 5 -2 -4 71 350° 5 - 30.17 30.20 15 CLR None
2017-12-18 07:00 5 -2 -4 71 360° 5 - 30.16 30.19 15 CLR None
2017-12-18 06:00 5 -2 -2 71 320° 3 - 30.16 30.19 15 CLR None
2017-12-18 05:00 7 -2 -2 65 340° 5 - 30.16 30.19 15 CLR None
2017-12-18 04:00 7 -2 -9 65 320° 13 - 30.15 30.18 15 CLR None
2017-12-18 03:00 9 -2 -11 60 340° 15 21 30.15 30.18 15 CLR None
2017-12-18 02:00 9 -2 -11 60 330° 10 21 30.15 30.19 15 CLR None
2017-12-18 01:00 10 0 -9 60 320° 14 21 30.16 30.19 15 CLR None
2017-12-18 00:00 10 0 -7 60 330° 16 - 30.14 30.17 15 CLR None
2017-12-17 23:00 10 0 -2 60 320° 9 - 30.12 30.16 15 CLR None
2017-12-17 22:00 12 0 1 56 310° 8 - 30.09 30.13 15 CLR None
2017-12-17 21:00 14 -2 4 47 310° 7 - 30.08 30.11 15 CLR None
2017-12-17 20:00 16 -2 4 44 310° 9 - 30.06 30.09 15 CLR None
2017-12-17 19:00 18 -2 2 40 300° 17 - 30.04 30.07 15 CLR None
2017-12-17 18:00 18 -2 0 40 310° 16 22 30.03 30.06 15 CLR None
2017-12-17 17:00 18 -2 1 40 320° 20 - 30.02 30.05 15 CLR None
2017-12-17 16:00 16 -2 -2 44 310° 10 22 30.04 30.07 15 CLR None
2017-12-17 15:00 14 -4 -2 43 310° 16 - 30.05 30.08 15 FEW270 None

Support USWX by starting your Amazon purchase here.